Time;durP1;ratioP1;P1;durP2;ratioP2;P2;SDS_P1;SDS_P2;PMS_P1;PMS_P2;Temp;Humidity;BMP_temperature;BMP_pressure;BME280_temperature;BME280_humidity;BME280_pressure;Samples;Min_cycle;Max_cycle;Signal;HPM_P1;HPM_P2
2022/01/24 00:01:49;;;;;;;0.20;0.20;;;;;;;;;;4934727;28;20034;-73
2022/01/24 00:04:15;;;;;;;0.85;0.85;;;;;;;;;;4942718;28;20031;-73
2022/01/24 00:06:41;;;;;;;0.45;0.45;;;;;;;;;;4941019;28;20393;-73
2022/01/24 00:09:09;;;;;;;0.65;0.50;;;;;;;;;;4936681;28;20530;-72
2022/01/24 00:11:46;;;;;;;0.35;0.30;;;;;;;;;;4938496;28;20031;-73
2022/01/24 00:14:49;;;;;;;0.45;0.45;;;;;;;;;;4941231;28;20071;-73
2022/01/24 00:17:13;;;;;;;0.55;0.43;;;;;;;;;;4945100;29;20473;-73
2022/01/24 00:27:56;;;;;;;0.00;0.00;;;;;;;;;;4942160;29;20050;-72
2022/01/24 00:30:22;;;;;;;0.50;0.50;;;;;;;;;;4936463;29;20039;-73
2022/01/24 00:32:48;;;;;;;0.68;0.68;;;;;;;;;;4942241;29;20469;-72
2022/01/24 00:35:14;;;;;;;0.77;0.77;;;;;;;;;;4941382;28;20057;-73
2022/01/24 00:37:40;;;;;;;1.25;0.73;;;;;;;;;;4939438;28;20453;-73
2022/01/24 00:40:07;;;;;;;0.28;0.28;;;;;;;;;;4941555;29;20390;-73
2022/01/24 00:42:52;;;;;;;0.10;0.10;;;;;;;;;;4931702;29;20123;-72
2022/01/24 00:53:30;;;;;;;0.22;0.22;;;;;;;;;;4931849;29;20509;-73
2022/01/24 00:55:56;;;;;;;0.90;0.88;;;;;;;;;;4933217;29;20028;-73
2022/01/24 00:58:22;;;;;;;1.08;0.60;;;;;;;;;;4937578;29;20118;-73
2022/01/24 01:00:48;;;;;;;0.30;0.30;;;;;;;;;;4931625;28;20175;-73
2022/01/24 01:03:14;;;;;;;0.82;0.82;;;;;;;;;;4933997;29;20023;-73
2022/01/24 01:06:04;;;;;;;1.50;1.40;;;;;;;;;;4935463;28;20731;-73
2022/01/24 01:19:29;;;;;;;0.88;0.88;;;;;;;;;;4940391;29;20122;-72
2022/01/24 01:21:55;;;;;;;1.15;1.00;;;;;;;;;;4947890;29;20038;-72
2022/01/24 01:24:23;;;;;;;0.70;0.70;;;;;;;;;;4945244;29;20090;-71
2022/01/24 01:26:59;;;;;;;0.30;0.30;;;;;;;;;;4947783;28;20062;-72
2022/01/24 01:29:30;;;;;;;2.00;1.67;;;;;;;;;;4943646;29;20027;-71
2022/01/24 01:37:48;;;;;;;0.57;0.50;;;;;;;;;;4941561;28;20030;-72
2022/01/24 01:54:10;;;;;;;0.32;0.32;;;;;;;;;;4944825;29;20043;-72
2022/01/24 01:56:36;;;;;;;1.50;1.40;;;;;;;;;;4944308;28;20552;-72
2022/01/24 01:59:03;;;;;;;0.45;0.40;;;;;;;;;;4946506;29;20023;-72
2022/01/24 02:01:29;;;;;;;0.32;0.32;;;;;;;;;;4943130;29;20386;-71
2022/01/24 02:03:56;;;;;;;0.73;0.73;;;;;;;;;;4944556;29;20497;-72
2022/01/24 02:06:23;;;;;;;1.05;0.95;;;;;;;;;;4940881;28;20039;-72
2022/01/24 02:08:48;;;;;;;0.90;0.55;;;;;;;;;;4942998;29;20035;-72
2022/01/24 02:11:16;;;;;;;0.10;0.10;;;;;;;;;;4944750;28;20103;-72
2022/01/24 02:13:43;;;;;;;0.20;0.20;;;;;;;;;;4943985;28;20050;-72
2022/01/24 02:16:18;;;;;;;2.65;0.50;;;;;;;;;;4942101;28;20039;-72
2022/01/24 02:18:53;;;;;;;0.10;0.10;;;;;;;;;;4938034;28;20058;-72
2022/01/24 02:21:40;;;;;;;0.90;0.90;;;;;;;;;;4935696;29;20065;-72
2022/01/24 02:24:06;;;;;;;0.30;0.30;;;;;;;;;;4945324;29;20028;-72
2022/01/24 02:26:33;;;;;;;0.80;0.80;;;;;;;;;;4941540;28;20461;-72
2022/01/24 02:29:12;;;;;;;0.60;0.55;;;;;;;;;;4940256;29;20088;-72
2022/01/24 02:34:06;;;;;;;0.93;0.75;;;;;;;;;;4947455;29;20141;-71
2022/01/24 02:36:32;;;;;;;0.30;0.30;;;;;;;;;;4941563;29;20027;-72
2022/01/24 02:39:23;;;;;;;0.55;0.35;;;;;;;;;;4944402;29;20035;-72
2022/01/24 02:50:07;;;;;;;7.80;1.38;;;;;;;;;;4940360;28;20054;-72
2022/01/24 02:52:33;;;;;;;0.85;0.63;;;;;;;;;;4938085;28;20032;-71
2022/01/24 02:54:59;;;;;;;0.40;0.40;;;;;;;;;;4945800;29;20046;-72
2022/01/24 02:57:25;;;;;;;0.73;0.73;;;;;;;;;;4941819;29;20020;-72
2022/01/24 02:59:50;;;;;;;1.10;1.05;;;;;;;;;;4934911;29;20039;-72
2022/01/24 03:02:16;;;;;;;1.67;1.05;;;;;;;;;;4933801;29;20110;-72
2022/01/24 03:04:42;;;;;;;0.10;0.10;;;;;;;;;;4940435;29;20547;-72
2022/01/24 03:07:08;;;;;;;0.15;0.15;;;;;;;;;;4937855;29;20024;-72
2022/01/24 03:09:36;;;;;;;2.10;0.55;;;;;;;;;;4937881;28;20039;-71
2022/01/24 03:12:08;;;;;;;2.58;0.98;;;;;;;;;;4939426;28;20043;-72
2022/01/24 03:15:22;;;;;;;0.22;0.22;;;;;;;;;;4943901;28;20636;-71
2022/01/24 03:17:24;;;;;;;0.10;0.10;;;;;;;;;;4932907;28;20405;-71
2022/01/24 03:19:49;;;;;;;1.17;0.90;;;;;;;;;;4943824;28;20314;-72
2022/01/24 03:22:16;;;;;;;0.38;0.38;;;;;;;;;;4939306;28;20028;-70
2022/01/24 03:24:42;;;;;;;0.73;0.73;;;;;;;;;;4939143;28;20024;-72
2022/01/24 03:27:07;;;;;;;0.00;0.00;;;;;;;;;;4936888;28;20478;-72
2022/01/24 03:29:33;;;;;;;0.40;0.28;;;;;;;;;;4936890;28;20505;-72
2022/01/24 03:31:59;;;;;;;0.10;0.10;;;;;;;;;;4933307;29;20487;-72
2022/01/24 03:34:25;;;;;;;0.50;0.50;;;;;;;;;;4936108;29;20035;-72
2022/01/24 03:36:51;;;;;;;0.55;0.55;;;;;;;;;;4944092;29;20027;-72
2022/01/24 03:39:17;;;;;;;0.68;0.45;;;;;;;;;;4928245;29;20038;-71
2022/01/24 03:41:43;;;;;;;1.15;1.05;;;;;;;;;;4938251;29;20113;-72
2022/01/24 03:44:12;;;;;;;0.95;0.95;;;;;;;;;;4942401;29;20370;-72
2022/01/24 03:47:43;;;;;;;0.52;0.52;;;;;;;;;;4940384;28;20394;-72
2022/01/24 03:49:45;;;;;;;0.10;0.10;;;;;;;;;;4932921;28;20162;-72
2022/01/24 03:52:12;;;;;;;0.52;0.52;;;;;;;;;;4940870;28;20148;-71
2022/01/24 03:54:37;;;;;;;2.60;1.35;;;;;;;;;;4942018;28;20062;-72
2022/01/24 03:57:04;;;;;;;0.43;0.43;;;;;;;;;;4945667;29;20612;-72
2022/01/24 03:59:31;;;;;;;0.55;0.55;;;;;;;;;;4943630;29;20038;-72
2022/01/24 04:01:58;;;;;;;0.55;0.55;;;;;;;;;;4939717;28;20110;-72
2022/01/24 04:04:24;;;;;;;0.57;0.57;;;;;;;;;;4931486;29;20645;-72
2022/01/24 04:06:49;;;;;;;0.73;0.68;;;;;;;;;;4941469;29;20225;-72
2022/01/24 04:09:15;;;;;;;0.45;0.45;;;;;;;;;;4942422;28;20039;-72
2022/01/24 04:11:41;;;;;;;1.40;1.30;;;;;;;;;;4941911;29;20031;-72
2022/01/24 04:22:07;;;;;;;0.40;0.40;;;;;;;;;;4933070;29;20494;-73
2022/01/24 04:24:33;;;;;;;0.40;0.40;;;;;;;;;;4933223;29;20043;-71
2022/01/24 04:26:59;;;;;;;0.85;0.85;;;;;;;;;;4931093;29;20055;-71
2022/01/24 04:29:25;;;;;;;0.15;0.15;;;;;;;;;;4926676;29;20389;-72
2022/01/24 04:31:51;;;;;;;0.47;0.47;;;;;;;;;;4932683;29;20031;-72
2022/01/24 04:34:17;;;;;;;0.20;0.20;;;;;;;;;;4939203;28;20067;-71
2022/01/24 04:36:42;;;;;;;0.75;0.50;;;;;;;;;;4941362;29;20038;-73
2022/01/24 04:39:08;;;;;;;0.30;0.30;;;;;;;;;;4939833;29;20118;-72
2022/01/24 04:41:38;;;;;;;2.30;0.90;;;;;;;;;;4938339;29;20130;-72
2022/01/24 04:44:18;;;;;;;1.20;0.47;;;;;;;;;;4935911;28;20614;-71
2022/01/24 04:53:09;;;;;;;0.80;0.75;;;;;;;;;;4938907;29;20558;-71
2022/01/24 04:54:57;;;;;;;0.95;0.70;;;;;;;;;;4932241;29;20043;-72
2022/01/24 04:57:25;;;;;;;0.75;0.75;;;;;;;;;;4942377;29;20039;-72
2022/01/24 04:59:51;;;;;;;1.50;0.80;;;;;;;;;;4937237;29;20045;-72
2022/01/24 05:02:18;;;;;;;2.92;0.82;;;;;;;;;;4940048;29;20031;-72
2022/01/24 05:04:44;;;;;;;0.38;0.38;;;;;;;;;;4931302;29;20504;-72
2022/01/24 05:07:10;;;;;;;4.57;0.95;;;;;;;;;;4934008;29;20047;-72
2022/01/24 05:09:53;;;;;;;1.45;1.33;;;;;;;;;;4936036;29;20031;-72
2022/01/24 05:23:27;;;;;;;0.13;0.13;;;;;;;;;;4939945;29;20042;-72
2022/01/24 05:25:54;;;;;;;0.40;0.40;;;;;;;;;;4934760;29;20031;-72
2022/01/24 05:28:20;;;;;;;0.93;0.88;;;;;;;;;;4937758;29;20035;-72
2022/01/24 05:30:46;;;;;;;0.52;0.52;;;;;;;;;;4933970;28;20031;-73
2022/01/24 05:33:13;;;;;;;0.75;0.75;;;;;;;;;;4937246;29;20466;-72
2022/01/24 05:35:39;;;;;;;0.28;0.28;;;;;;;;;;4942423;28;20094;-71
2022/01/24 05:38:05;;;;;;;0.13;0.13;;;;;;;;;;4941736;29;20035;-73
2022/01/24 05:40:31;;;;;;;0.55;0.43;;;;;;;;;;4935364;29;20142;-73
2022/01/24 05:42:57;;;;;;;0.30;0.30;;;;;;;;;;4937634;29;20106;-74
2022/01/24 05:45:23;;;;;;;0.20;0.20;;;;;;;;;;4939836;29;20047;-73
2022/01/24 05:47:49;;;;;;;1.45;0.65;;;;;;;;;;4939223;29;20033;-73
2022/01/24 05:50:15;;;;;;;0.32;0.32;;;;;;;;;;4942459;29;20039;-73
2022/01/24 05:52:41;;;;;;;0.90;0.65;;;;;;;;;;4946095;28;20035;-73
2022/01/24 05:55:08;;;;;;;0.50;0.50;;;;;;;;;;4947401;29;20042;-73
2022/01/24 05:57:36;;;;;;;1.70;0.75;;;;;;;;;;4948635;29;20114;-73
2022/01/24 06:00:02;;;;;;;0.30;0.30;;;;;;;;;;4943204;29;20019;-73
2022/01/24 06:02:28;;;;;;;0.25;0.25;;;;;;;;;;4941752;29;20035;-73
2022/01/24 06:04:54;;;;;;;0.55;0.55;;;;;;;;;;4948594;29;20111;-73
2022/01/24 06:07:20;;;;;;;1.95;1.85;;;;;;;;;;4939243;29;20829;-73
2022/01/24 06:09:46;;;;;;;0.63;0.63;;;;;;;;;;4945877;29;20027;-73
2022/01/24 06:12:12;;;;;;;1.13;0.90;;;;;;;;;;4937845;29;20486;-73
2022/01/24 06:14:38;;;;;;;18.23;1.58;;;;;;;;;;4943379;29;20058;-73
2022/01/24 06:17:04;;;;;;;0.75;0.75;;;;;;;;;;4948580;29;20055;-73
2022/01/24 06:19:30;;;;;;;1.10;0.68;;;;;;;;;;4949341;29;20043;-73
2022/01/24 06:21:56;;;;;;;0.20;0.20;;;;;;;;;;4949023;29;20118;-73
2022/01/24 06:24:22;;;;;;;0.30;0.30;;;;;;;;;;4946154;29;20031;-73
2022/01/24 06:26:47;;;;;;;0.15;0.15;;;;;;;;;;4944503;29;20027;-73
2022/01/24 06:29:13;;;;;;;1.85;0.47;;;;;;;;;;4944219;29;20027;-73
2022/01/24 06:31:39;;;;;;;1.45;1.35;;;;;;;;;;4946183;29;20027;-73
2022/01/24 06:34:06;;;;;;;0.40;0.40;;;;;;;;;;4945768;29;20016;-74
2022/01/24 06:36:32;;;;;;;0.70;0.68;;;;;;;;;;4947300;29;20410;-74
2022/01/24 06:39:04;;;;;;;0.30;0.30;;;;;;;;;;4934596;29;20024;-76
2022/01/24 06:41:33;;;;;;;;;;;;;;;;;;4944342;28;20067;-73
2022/01/24 06:43:59;;;;;;;0.10;0.10;;;;;;;;;;4942854;28;20061;-74
2022/01/24 06:46:25;;;;;;;1.17;0.60;;;;;;;;;;4944311;29;20028;-73
2022/01/24 06:48:51;;;;;;;0.90;0.85;;;;;;;;;;4948618;29;20039;-73
2022/01/24 06:51:21;;;;;;;0.40;0.40;;;;;;;;;;4950612;29;20035;-73
2022/01/24 06:53:48;;;;;;;0.68;0.57;;;;;;;;;;4946434;29;20074;-74
2022/01/24 06:56:14;;;;;;;1.00;0.55;;;;;;;;;;4947406;28;20043;-73
2022/01/24 06:58:40;;;;;;;2.60;0.40;;;;;;;;;;4950325;29;20023;-74
2022/01/24 07:01:06;;;;;;;1.45;0.82;;;;;;;;;;4942153;29;20427;-75
2022/01/24 07:03:33;;;;;;;0.30;0.30;;;;;;;;;;4949212;28;20031;-76
2022/01/24 07:05:58;;;;;;;0.52;0.40;;;;;;;;;;4943057;29;20059;-75
2022/01/24 07:08:24;;;;;;;2.75;1.02;;;;;;;;;;4943988;28;20066;-75
2022/01/24 07:10:51;;;;;;;0.22;0.22;;;;;;;;;;4947097;29;20515;-75
2022/01/24 07:13:18;;;;;;;0.45;0.45;;;;;;;;;;4952401;29;20110;-75
2022/01/24 07:15:49;;;;;;;0.68;0.68;;;;;;;;;;4946382;28;20028;-76
2022/01/24 07:20:53;;;;;;;0.65;0.65;;;;;;;;;;4950443;29;20546;-75
2022/01/24 07:23:19;;;;;;;0.35;0.35;;;;;;;;;;4950256;28;20023;-74
2022/01/24 07:25:45;;;;;;;0.13;0.13;;;;;;;;;;4941964;29;20395;-76
2022/01/24 07:28:11;;;;;;;0.82;0.80;;;;;;;;;;4945296;29;20031;-73
2022/01/24 07:30:37;;;;;;;0.63;0.63;;;;;;;;;;4948275;29;20513;-73
2022/01/24 07:33:03;;;;;;;0.80;0.80;;;;;;;;;;4948514;29;20031;-72
2022/01/24 07:35:29;;;;;;;0.30;0.30;;;;;;;;;;4950429;29;20034;-74
2022/01/24 07:37:55;;;;;;;0.30;0.30;;;;;;;;;;4943833;28;20399;-72
2022/01/24 07:40:22;;;;;;;1.98;0.52;;;;;;;;;;4940293;29;20035;-72
2022/01/24 07:45:24;;;;;;;0.10;0.10;;;;;;;;;;4949039;29;20422;-73
2022/01/24 07:47:50;;;;;;;0.00;0.00;;;;;;;;;;4949164;28;20441;-74
2022/01/24 07:50:21;;;;;;;2.05;1.10;;;;;;;;;;4949993;29;20038;-72
2022/01/24 07:52:47;;;;;;;2.28;1.33;;;;;;;;;;4943408;29;20076;-73
2022/01/24 07:55:13;;;;;;;1.15;1.05;;;;;;;;;;4938260;29;20032;-73
2022/01/24 07:57:39;;;;;;;0.28;0.28;;;;;;;;;;4944834;29;20490;-73
2022/01/24 08:00:07;;;;;;;0.65;0.65;;;;;;;;;;4947185;29;20035;-73
2022/01/24 08:02:33;;;;;;;0.50;0.50;;;;;;;;;;4944706;28;20030;-73
2022/01/24 08:04:58;;;;;;;0.32;0.32;;;;;;;;;;4944379;29;20019;-73
2022/01/24 08:07:24;;;;;;;0.43;0.43;;;;;;;;;;4941109;29;20047;-72
2022/01/24 08:09:50;;;;;;;0.30;0.30;;;;;;;;;;4942390;29;20699;-76
2022/01/24 08:12:17;;;;;;;0.20;0.20;;;;;;;;;;4939604;29;20115;-75
2022/01/24 08:14:43;;;;;;;0.28;0.28;;;;;;;;;;4946296;28;20149;-75
2022/01/24 08:17:12;;;;;;;0.43;0.43;;;;;;;;;;4941736;29;20412;-73
2022/01/24 08:19:38;;;;;;;1.30;1.20;;;;;;;;;;4936930;29;20101;-73
2022/01/24 08:22:05;;;;;;;0.10;0.10;;;;;;;;;;4943522;29;20095;-73
2022/01/24 08:24:31;;;;;;;0.95;0.85;;;;;;;;;;4946550;29;20034;-72
2022/01/24 08:26:57;;;;;;;0.30;0.30;;;;;;;;;;4946265;29;20023;-73
2022/01/24 08:29:23;;;;;;;0.10;0.10;;;;;;;;;;4939417;28;20034;-73
2022/01/24 08:31:49;;;;;;;0.20;0.20;;;;;;;;;;4940281;29;20031;-75
2022/01/24 08:34:15;;;;;;;0.10;0.10;;;;;;;;;;4936319;29;20036;-74
2022/01/24 08:36:41;;;;;;;0.68;0.68;;;;;;;;;;4943926;29;20034;-73
2022/01/24 08:39:08;;;;;;;0.30;0.30;;;;;;;;;;4940471;29;20031;-72
2022/01/24 08:41:44;;;;;;;0.32;0.32;;;;;;;;;;4946486;28;20719;-73
2022/01/24 08:46:56;;;;;;;0.50;0.50;;;;;;;;;;4933407;29;20082;-74
2022/01/24 08:49:22;;;;;;;1.15;0.30;;;;;;;;;;4939634;29;20113;-75
2022/01/24 08:51:48;;;;;;;0.85;0.85;;;;;;;;;;4943368;29;20122;-73
2022/01/24 08:54:14;;;;;;;0.10;0.10;;;;;;;;;;4945443;29;20025;-74
2022/01/24 08:56:40;;;;;;;0.55;0.45;;;;;;;;;;4945041;29;20058;-73
2022/01/24 08:59:06;;;;;;;0.30;0.30;;;;;;;;;;4947294;29;20027;-73
2022/01/24 09:01:32;;;;;;;0.82;0.73;;;;;;;;;;4946437;29;20035;-72
2022/01/24 09:03:58;;;;;;;0.32;0.32;;;;;;;;;;4949676;29;20034;-76
2022/01/24 09:06:24;;;;;;;0.40;0.40;;;;;;;;;;4947119;29;20090;-73
2022/01/24 09:08:55;;;;;;;0.15;0.15;;;;;;;;;;4944802;29;20137;-79
2022/01/24 09:11:23;;;;;;;0.50;0.50;;;;;;;;;;4945257;28;20038;-75
2022/01/24 09:13:49;;;;;;;0.35;0.35;;;;;;;;;;4937402;28;20256;-73
2022/01/24 09:16:14;;;;;;;0.10;0.10;;;;;;;;;;4946955;29;20063;-73
2022/01/24 09:18:41;;;;;;;6.13;0.65;;;;;;;;;;4944684;29;20035;-73
2022/01/24 09:21:07;;;;;;;0.20;0.20;;;;;;;;;;4941981;29;20027;-74
2022/01/24 09:23:33;;;;;;;0.03;0.03;;;;;;;;;;4942190;29;20028;-73
2022/01/24 09:25:58;;;;;;;0.15;0.15;;;;;;;;;;4936731;29;20031;-71
2022/01/24 09:28:24;;;;;;;0.40;0.32;;;;;;;;;;4942942;28;20130;-73
2022/01/24 09:30:51;;;;;;;0.35;0.35;;;;;;;;;;4938086;29;20111;-76
2022/01/24 09:33:17;;;;;;;0.40;0.40;;;;;;;;;;4946297;29;20498;-75
2022/01/24 09:35:44;;;;;;;0.30;0.30;;;;;;;;;;4952656;29;20078;-75
2022/01/24 09:38:10;;;;;;;0.80;0.80;;;;;;;;;;4950512;28;20027;-76
2022/01/24 09:40:37;;;;;;;1.55;0.25;;;;;;;;;;4946530;29;20054;-76
2022/01/24 09:43:03;;;;;;;0.25;0.15;;;;;;;;;;4946876;29;20485;-75
2022/01/24 09:45:29;;;;;;;0.20;0.20;;;;;;;;;;4944183;28;20035;-75
2022/01/24 09:47:55;;;;;;;0.10;0.10;;;;;;;;;;4944908;29;20034;-74
2022/01/24 09:50:21;;;;;;;1.27;0.80;;;;;;;;;;4941619;28;20027;-75
2022/01/24 09:52:48;;;;;;;0.77;0.77;;;;;;;;;;4947531;29;20097;-75
2022/01/24 09:55:15;;;;;;;0.50;0.50;;;;;;;;;;4950545;29;20074;-75
2022/01/24 09:57:42;;;;;;;0.32;0.32;;;;;;;;;;4948271;29;20031;-75
2022/01/24 10:00:09;;;;;;;0.20;0.20;;;;;;;;;;4943743;28;20039;-76
2022/01/24 10:02:35;;;;;;;0.20;0.20;;;;;;;;;;4941704;29;20032;-76
2022/01/24 10:05:13;;;;;;;0.47;0.47;;;;;;;;;;4942236;28;20038;-76
2022/01/24 10:07:40;;;;;;;0.10;0.10;;;;;;;;;;4941775;29;20039;-71
2022/01/24 10:10:06;;;;;;;1.98;0.80;;;;;;;;;;4934782;29;20042;-71
2022/01/24 10:17:44;;;;;;;0.43;0.43;;;;;;;;;;4940026;29;20041;-71
2022/01/24 10:20:21;;;;;;;0.30;0.30;;;;;;;;;;4944709;29;20115;-70
2022/01/24 10:23:20;;;;;;;0.10;0.10;;;;;;;;;;4939688;29;20034;-71
2022/01/24 10:25:47;;;;;;;0.32;0.32;;;;;;;;;;4900280;29;20028;-71
2022/01/24 10:28:20;;;;;;;0.65;0.45;;;;;;;;;;4944049;29;20038;-71
2022/01/24 10:30:49;;;;;;;0.45;0.45;;;;;;;;;;4946445;29;20038;-71
2022/01/24 10:33:15;;;;;;;1.48;1.38;;;;;;;;;;4940294;29;20160;-71
2022/01/24 10:35:46;;;;;;;0.52;0.52;;;;;;;;;;4940105;29;20134;-69
2022/01/24 10:38:41;;;;;;;0.50;0.50;;;;;;;;;;4936974;28;20059;-68
2022/01/24 10:41:21;;;;;;;0.20;0.20;;;;;;;;;;4946927;29;20039;-69
2022/01/24 10:43:48;;;;;;;0.22;0.22;;;;;;;;;;4945591;28;20035;-69
2022/01/24 10:46:14;;;;;;;0.40;0.40;;;;;;;;;;4937537;28;20043;-70
2022/01/24 10:48:45;;;;;;;0.20;0.20;;;;;;;;;;4941908;29;20228;-71
2022/01/24 10:51:18;;;;;;;0.98;0.63;;;;;;;;;;4940555;29;20023;-71
2022/01/24 10:53:44;;;;;;;2.45;0.95;;;;;;;;;;4944121;28;20113;-71
2022/01/24 10:56:25;;;;;;;0.30;0.30;;;;;;;;;;4941160;29;20732;-72
2022/01/24 10:58:51;;;;;;;0.98;0.88;;;;;;;;;;4939247;29;20031;-72
2022/01/24 11:01:21;;;;;;;1.27;0.32;;;;;;;;;;4943845;29;20036;-72
2022/01/24 11:03:57;;;;;;;0.75;0.75;;;;;;;;;;4939354;29;20581;-73
2022/01/24 11:06:49;;;;;;;0.22;0.22;;;;;;;;;;4942322;29;20066;-72
2022/01/24 11:09:22;;;;;;;0.10;0.10;;;;;;;;;;4945627;29;20122;-72
2022/01/24 11:11:48;;;;;;;0.08;0.08;;;;;;;;;;4944534;28;20043;-72
2022/01/24 11:14:17;;;;;;;0.40;0.30;;;;;;;;;;4938971;29;20311;-73
2022/01/24 11:16:44;;;;;;;0.43;0.43;;;;;;;;;;4944496;29;20032;-73
2022/01/24 11:19:16;;;;;;;0.50;0.50;;;;;;;;;;4938975;29;20039;-73
2022/01/24 11:21:44;;;;;;;1.17;1.08;;;;;;;;;;4939527;29;20034;-73
2022/01/24 11:24:16;;;;;;;0.17;0.17;;;;;;;;;;4941751;29;20047;-73
2022/01/24 11:26:43;;;;;;;0.65;0.65;;;;;;;;;;4944959;28;20268;-74
2022/01/24 11:29:09;;;;;;;0.10;0.10;;;;;;;;;;4936546;29;20139;-73
2022/01/24 11:31:40;;;;;;;0.10;0.10;;;;;;;;;;4938531;29;20071;-73
2022/01/24 11:34:12;;;;;;;0.25;0.25;;;;;;;;;;4946548;28;20039;-73
2022/01/24 11:36:37;;;;;;;;;;;;;;;;;;4943851;29;20036;-74
2022/01/24 11:39:04;;;;;;;0.43;0.43;;;;;;;;;;4940858;28;20379;-74
2022/01/24 11:41:35;;;;;;;0.10;0.10;;;;;;;;;;4941747;29;20469;-74
2022/01/24 11:44:10;;;;;;;0.00;0.00;;;;;;;;;;4944816;28;20106;-74
2022/01/24 11:46:48;;;;;;;0.00;0.00;;;;;;;;;;4940221;29;20114;-73
2022/01/24 11:49:19;;;;;;;0.35;0.35;;;;;;;;;;4940745;29;20023;-74
2022/01/24 11:51:47;;;;;;;0.20;0.20;;;;;;;;;;4939269;28;20058;-74
2022/01/24 11:54:43;;;;;;;0.30;0.30;;;;;;;;;;4940427;29;20053;-74
2022/01/24 11:57:25;;;;;;;0.47;0.30;;;;;;;;;;4950270;28;20094;-73
2022/01/24 12:00:04;;;;;;;0.50;0.50;;;;;;;;;;4945653;29;20023;-73
2022/01/24 12:02:33;;;;;;;0.00;0.00;;;;;;;;;;4941966;29;20140;-74
2022/01/24 12:05:09;;;;;;;1.23;0.88;;;;;;;;;;4948072;28;20090;-74
2022/01/24 12:07:44;;;;;;;1.55;1.20;;;;;;;;;;4946771;29;20034;-73
2022/01/24 12:10:38;;;;;;;0.28;0.28;;;;;;;;;;4938106;28;20048;-74
2022/01/24 12:13:06;;;;;;;0.45;0.45;;;;;;;;;;4911993;28;20046;-74
2022/01/24 12:15:38;;;;;;;0.05;0.05;;;;;;;;;;4941191;29;20249;-75
2022/01/24 12:18:05;;;;;;;0.50;0.50;;;;;;;;;;4943136;29;20024;-74
2022/01/24 12:20:37;;;;;;;2.08;1.48;;;;;;;;;;4937840;29;21050;-74
2022/01/24 12:23:25;;;;;;;1.33;0.95;;;;;;;;;;4941990;29;20090;-74
2022/01/24 12:25:58;;;;;;;0.22;0.22;;;;;;;;;;4947912;29;20035;-74
2022/01/24 12:28:25;;;;;;;0.20;0.20;;;;;;;;;;4949547;29;20024;-74
2022/01/24 12:30:58;;;;;;;0.55;0.50;;;;;;;;;;4938688;29;20023;-74
2022/01/24 12:33:46;;;;;;;1.10;0.85;;;;;;;;;;4948273;29;20390;-74
2022/01/24 12:36:13;;;;;;;1.65;0.95;;;;;;;;;;4940461;29;20126;-73
2022/01/24 12:38:52;;;;;;;0.52;0.52;;;;;;;;;;4946668;29;20023;-73
2022/01/24 12:41:21;;;;;;;0.73;0.32;;;;;;;;;;4944923;29;20054;-73
2022/01/24 12:44:08;;;;;;;0.25;0.25;;;;;;;;;;4942152;29;20448;-74
2022/01/24 12:46:35;;;;;;;0.17;0.17;;;;;;;;;;4942818;29;20042;-74
2022/01/24 12:49:02;;;;;;;0.85;0.57;;;;;;;;;;4939824;29;20027;-74
2022/01/24 12:51:29;;;;;;;1.92;1.00;;;;;;;;;;4947078;29;20039;-74
2022/01/24 12:53:56;;;;;;;1.08;0.93;;;;;;;;;;4940800;29;20113;-73
2022/01/24 12:56:26;;;;;;;0.05;0.05;;;;;;;;;;4946789;29;20097;-74
2022/01/24 12:58:52;;;;;;;0.52;0.47;;;;;;;;;;4948361;29;20031;-73
2022/01/24 13:01:20;;;;;;;0.10;0.10;;;;;;;;;;4949748;28;20042;-72
2022/01/24 13:03:55;;;;;;;0.47;0.47;;;;;;;;;;4953377;29;20035;-73
2022/01/24 13:06:21;;;;;;;0.20;0.20;;;;;;;;;;4953334;28;20031;-73
2022/01/24 13:08:54;;;;;;;0.50;0.50;;;;;;;;;;4949635;28;20042;-72
2022/01/24 13:11:20;;;;;;;0.10;0.10;;;;;;;;;;4941159;29;20070;-72
2022/01/24 13:14:04;;;;;;;0.32;0.32;;;;;;;;;;4942815;28;20627;-72
2022/01/24 13:25:05;;;;;;;0.25;0.20;;;;;;;;;;4945185;28;20031;-73
2022/01/24 13:27:41;;;;;;;0.10;0.10;;;;;;;;;;4946353;29;20686;-72
2022/01/24 13:30:09;;;;;;;0.52;0.52;;;;;;;;;;4941322;29;20028;-73
2022/01/24 13:32:42;;;;;;;0.52;0.20;;;;;;;;;;4945091;28;20512;-72
2022/01/24 13:35:20;;;;;;;3.65;3.22;;;;;;;;;;4944086;28;20519;-73
2022/01/24 13:37:46;;;;;;;1.92;1.73;;;;;;;;;;4948739;29;20053;-74
2022/01/24 13:40:12;;;;;;;1.90;1.80;;;;;;;;;;4951719;29;20043;-73
2022/01/24 13:42:38;;;;;;;4.97;1.20;;;;;;;;;;4945610;29;20058;-74
2022/01/24 13:45:05;;;;;;;0.43;0.43;;;;;;;;;;4938924;29;20683;-74
2022/01/24 13:47:31;;;;;;;1.73;1.48;;;;;;;;;;4946717;29;20031;-73
2022/01/24 13:49:57;;;;;;;12.07;8.63;;;;;;;;;;4949968;29;20607;-73
2022/01/24 13:52:28;;;;;;;7.30;4.70;;;;;;;;;;4946838;29;20054;-73
2022/01/24 13:54:54;;;;;;;1.77;1.10;;;;;;;;;;4943401;29;20086;-73
2022/01/24 13:57:20;;;;;;;0.65;0.65;;;;;;;;;;4940060;29;20691;-73
2022/01/24 13:59:46;;;;;;;0.10;0.10;;;;;;;;;;4937684;29;20114;-74
2022/01/24 14:02:17;;;;;;;0.30;0.30;;;;;;;;;;4942746;29;20098;-74
2022/01/24 14:04:43;;;;;;;1.85;0.52;;;;;;;;;;4950492;29;20019;-73
2022/01/24 14:07:09;;;;;;;0.22;0.22;;;;;;;;;;4950828;28;20038;-73
2022/01/24 14:09:41;;;;;;;0.88;0.73;;;;;;;;;;4949202;29;20089;-73
2022/01/24 14:12:09;;;;;;;0.20;0.20;;;;;;;;;;4947120;29;20031;-73
2022/01/24 14:14:46;;;;;;;0.32;0.25;;;;;;;;;;4936172;29;20575;-73
2022/01/24 14:19:39;;;;;;;0.30;0.30;;;;;;;;;;4949097;29;20497;-72
2022/01/24 14:22:07;;;;;;;0.25;0.25;;;;;;;;;;4947108;29;21144;-73
2022/01/24 14:24:50;;;;;;;2.08;1.08;;;;;;;;;;4947924;29;20036;-73
2022/01/24 14:27:35;;;;;;;0.10;0.10;;;;;;;;;;4946818;29;20501;-73
2022/01/24 14:30:06;;;;;;;0.30;0.30;;;;;;;;;;4944485;29;20095;-73
2022/01/24 14:32:34;;;;;;;1.13;0.82;;;;;;;;;;4952658;29;20481;-73
2022/01/24 14:35:05;;;;;;;0.73;0.50;;;;;;;;;;4941482;28;20039;-73
2022/01/24 14:37:48;;;;;;;0.40;0.30;;;;;;;;;;4945193;29;20502;-73
2022/01/24 14:40:33;;;;;;;0.38;0.38;;;;;;;;;;4946318;28;20020;-73
2022/01/24 14:45:43;;;;;;;1.00;0.55;;;;;;;;;;4949012;29;20074;-73
2022/01/24 14:48:09;;;;;;;1.80;0.65;;;;;;;;;;4946669;29;20505;-74
2022/01/24 14:50:36;;;;;;;0.13;0.13;;;;;;;;;;4941727;29;20452;-73
2022/01/24 14:53:04;;;;;;;0.40;0.40;;;;;;;;;;4945052;29;20024;-72
2022/01/24 14:55:31;;;;;;;0.52;0.52;;;;;;;;;;4945405;28;20117;-73
2022/01/24 14:57:57;;;;;;;0.95;0.95;;;;;;;;;;4948582;29;20103;-73
2022/01/24 15:00:23;;;;;;;0.75;0.75;;;;;;;;;;4948125;29;20553;-73
2022/01/24 15:02:50;;;;;;;0.22;0.22;;;;;;;;;;4947838;29;20023;-74
2022/01/24 15:05:16;;;;;;;0.20;0.20;;;;;;;;;;4947804;29;20086;-73
2022/01/24 15:07:43;;;;;;;5.15;1.00;;;;;;;;;;4944944;29;20102;-73
2022/01/24 15:10:09;;;;;;;0.40;0.40;;;;;;;;;;4949062;28;20055;-73
2022/01/24 15:12:41;;;;;;;0.93;0.93;;;;;;;;;;4942897;29;20491;-73
2022/01/24 15:15:09;;;;;;;0.85;0.85;;;;;;;;;;4947993;29;20027;-74
2022/01/24 15:25:48;;;;;;;0.10;0.10;;;;;;;;;;4945687;28;20046;-72
2022/01/24 15:28:18;;;;;;;0.65;0.65;;;;;;;;;;4944232;29;20035;-72
2022/01/24 15:30:44;;;;;;;0.50;0.50;;;;;;;;;;4944926;29;20038;-72
2022/01/24 15:33:10;;;;;;;1.45;1.30;;;;;;;;;;4946633;29;20046;-71
2022/01/24 15:35:36;;;;;;;1.77;0.95;;;;;;;;;;4948865;29;20028;-76
2022/01/24 15:38:04;;;;;;;2.78;0.32;;;;;;;;;;4940928;29;20028;-74
2022/01/24 15:40:31;;;;;;;11.40;1.10;;;;;;;;;;4946113;28;20094;-76
2022/01/24 15:43:10;;;;;;;0.98;0.65;;;;;;;;;;4939933;29;20497;-72
2022/01/24 15:45:42;;;;;;;0.75;0.75;;;;;;;;;;4941114;29;20119;-73
2022/01/24 15:48:20;;;;;;;3.97;0.90;;;;;;;;;;4944729;29;20027;-73
2022/01/24 15:50:46;;;;;;;0.50;0.50;;;;;;;;;;4934556;29;20505;-72
2022/01/24 15:53:12;;;;;;;0.20;0.20;;;;;;;;;;4940704;29;20027;-73
2022/01/24 15:55:41;;;;;;;3.38;1.15;;;;;;;;;;4942496;29;20054;-73
2022/01/24 15:58:07;;;;;;;0.60;0.60;;;;;;;;;;4940035;28;20031;-74
2022/01/24 16:00:41;;;;;;;0.20;0.20;;;;;;;;;;4944260;29;20027;-74
2022/01/24 16:03:08;;;;;;;0.68;0.68;;;;;;;;;;4944668;28;20074;-73
2022/01/24 16:05:34;;;;;;;0.60;0.60;;;;;;;;;;4937813;28;20024;-73
2022/01/24 16:08:01;;;;;;;0.85;0.73;;;;;;;;;;4941295;29;20069;-73
2022/01/24 16:10:28;;;;;;;0.20;0.20;;;;;;;;;;4946886;29;20042;-75
2022/01/24 16:12:54;;;;;;;0.60;0.60;;;;;;;;;;4942113;29;20046;-75
2022/01/24 16:15:22;;;;;;;0.68;0.68;;;;;;;;;;4938197;29;20027;-74
2022/01/24 16:17:49;;;;;;;0.10;0.10;;;;;;;;;;4942254;29;20023;-74
2022/01/24 16:20:22;;;;;;;0.38;0.38;;;;;;;;;;4946619;29;20031;-74
2022/01/24 16:25:33;;;;;;;1.08;1.08;;;;;;;;;;4939739;29;20039;-74
2022/01/24 16:28:00;;;;;;;0.65;0.63;;;;;;;;;;4937760;29;20478;-75
2022/01/24 16:30:27;;;;;;;0.77;0.77;;;;;;;;;;4947351;29;20398;-74
2022/01/24 16:33:03;;;;;;;0.38;0.38;;;;;;;;;;4947595;29;20062;-76
2022/01/24 16:35:29;;;;;;;1.65;1.55;;;;;;;;;;4943902;29;20497;-75
2022/01/24 16:37:55;;;;;;;1.10;0.65;;;;;;;;;;4946113;29;20114;-75
2022/01/24 16:40:31;;;;;;;0.52;0.52;;;;;;;;;;4945793;28;20047;-76
2022/01/24 16:43:25;;;;;;;0.65;0.65;;;;;;;;;;4938509;28;20031;-77
2022/01/24 16:48:41;;;;;;;8.75;0.77;;;;;;;;;;4943282;29;20031;-72
2022/01/24 16:51:08;;;;;;;0.75;0.75;;;;;;;;;;4949206;28;20035;-74
2022/01/24 16:53:34;;;;;;;1.05;0.93;;;;;;;;;;4943998;29;20031;-75
2022/01/24 16:56:00;;;;;;;0.40;0.40;;;;;;;;;;4950553;29;20043;-74
2022/01/24 16:58:30;;;;;;;0.28;0.28;;;;;;;;;;4948530;29;20095;-74